Time;durP1;ratioP1;P1;durP2;ratioP2;P2;SDS_P1;SDS_P2;PMS_P1;PMS_P2;Temp;Humidity;BMP_temperature;BMP_pressure;BME280_temperature;BME280_humidity;BME280_pressure;Samples;Min_cycle;Max_cycle;Signal;HPM_P1;HPM_P2
2021/12/14 00:02:04;;;;;;;245.42;90.87;;;;;;;-2.01;100.00;99852.75;2198193;81;21516;-82
2021/12/14 00:05:05;;;;;;;238.90;89.62;;;;;;;-1.99;100.00;99855.24;2198093;81;20926;-82
2021/12/14 00:08:06;;;;;;;232.18;87.57;;;;;;;-1.97;100.00;99849.58;2198315;81;21017;-82
2021/12/14 00:17:20;;;;;;;229.25;88.05;;;;;;;-1.87;100.00;99850.80;2198205;81;21528;-82
2021/12/14 00:20:21;;;;;;;227.70;86.80;;;;;;;-1.98;100.00;99850.94;2198284;81;21041;-82
2021/12/14 00:26:41;;;;;;;193.37;77.67;;;;;;;-2.11;100.00;99848.09;2197745;81;21006;-82
2021/12/14 00:29:41;;;;;;;194.62;81.63;;;;;;;-2.16;100.00;99853.91;2195520;81;21030;-81
2021/12/14 00:32:42;;;;;;;195.47;82.50;;;;;;;-2.16;100.00;99846.22;2186691;81;21089;-82
2021/12/14 00:35:43;;;;;;;187.05;76.60;;;;;;;-2.18;100.00;99850.59;2186747;81;20998;-82
2021/12/14 00:38:44;;;;;;;195.92;78.78;;;;;;;-2.17;100.00;99857.39;2186937;81;21022;-82
2021/12/14 00:41:45;;;;;;;152.72;68.42;;;;;;;-2.14;100.00;99858.06;2186930;81;21019;-82
2021/12/14 00:44:45;;;;;;;169.77;75.40;;;;;;;-2.14;100.00;99859.80;2187209;81;21474;-83
2021/12/14 00:47:46;;;;;;;160.15;69.80;;;;;;;-2.19;100.00;99860.48;2187011;81;20958;-83
2021/12/14 00:50:47;;;;;;;169.53;74.30;;;;;;;-2.21;100.00;99872.08;2187283;81;21002;-83
2021/12/14 00:53:48;;;;;;;168.30;71.30;;;;;;;-2.13;100.00;99871.27;2187151;81;21048;-84
2021/12/14 00:56:49;;;;;;;154.32;66.05;;;;;;;-2.04;100.00;99870.02;2187137;81;21043;-84
2021/12/14 00:59:50;;;;;;;164.05;68.07;;;;;;;-2.03;100.00;99866.54;2187504;81;21499;-82
2021/12/14 01:02:50;;;;;;;155.43;66.30;;;;;;;-2.10;100.00;99871.61;2186830;81;21011;-80
2021/12/14 01:05:51;;;;;;;148.82;63.70;;;;;;;-2.15;100.00;99874.37;2187218;81;21529;-81
2021/12/14 01:08:52;;;;;;;145.97;61.48;;;;;;;-2.18;100.00;99869.84;2187137;81;21096;-82
2021/12/14 01:11:53;;;;;;;145.90;61.98;;;;;;;-2.18;100.00;99860.86;2187275;81;21026;-81
2021/12/14 01:15:10;;;;;;;139.97;63.13;;;;;;;-2.19;100.00;99869.02;2187072;81;21027;-82
2021/12/14 01:18:15;;;;;;;154.47;67.42;;;;;;;-2.24;100.00;99867.55;2213019;80;21041;-80
2021/12/14 01:21:13;;;;;;;;;;;;;;;-2.20;100.00;99863.47;2216606;80;20978;-81
2021/12/14 01:24:09;;;;;;;137.62;61.33;;;;;;;-2.11;100.00;99860.48;2214492;80;20167;-82
2021/12/14 01:27:10;;;;;;;144.30;64.82;;;;;;;-2.12;100.00;99847.27;2216897;80;21116;-82
2021/12/14 01:30:13;;;;;;;144.32;67.90;;;;;;;-2.17;100.00;99846.67;2216837;80;21041;-82
2021/12/14 01:33:15;;;;;;;143.35;65.95;;;;;;;-2.20;100.00;99854.95;2217301;80;21076;-82
2021/12/14 01:36:26;;;;;;;131.07;62.53;;;;;;;-2.24;100.00;99859.85;2216920;80;20997;-82
2021/12/14 01:39:47;;;;;;;135.40;60.67;;;;;;;-2.20;100.00;99862.19;2216543;80;21096;-82
2021/12/14 01:42:27;;;;;;;133.57;62.13;;;;;;;-2.30;100.00;99865.63;2212475;80;21014;-82
2021/12/14 01:45:28;;;;;;;133.72;64.17;;;;;;;-2.32;100.00;99865.33;2217107;80;21033;-82
2021/12/14 01:48:29;;;;;;;128.30;59.50;;;;;;;-2.36;100.00;99870.23;2216834;80;21005;-82
2021/12/14 01:51:30;;;;;;;143.40;66.40;;;;;;;-2.40;100.00;99859.27;2216882;80;21500;-82
2021/12/14 01:54:30;;;;;;;146.53;66.57;;;;;;;-2.43;100.00;99865.83;2216793;80;20966;-82
2021/12/14 01:57:31;;;;;;;153.90;66.15;;;;;;;-2.39;100.00;99868.62;2216800;80;20969;-82
2021/12/14 02:00:33;;;;;;;149.10;62.60;;;;;;;-2.36;100.00;99870.23;2216878;80;21554;-82
2021/12/14 02:03:34;;;;;;;122.40;55.88;;;;;;;-2.40;100.00;99874.66;2216946;80;20996;-82
2021/12/14 02:06:35;;;;;;;145.80;63.50;;;;;;;-2.44;100.00;99875.70;2216883;80;21010;-82
2021/12/14 02:09:35;;;;;;;142.30;63.75;;;;;;;-2.50;100.00;99868.28;2216889;80;21622;-82
2021/12/14 02:12:36;;;;;;;136.72;62.95;;;;;;;-2.53;100.00;99867.14;2216769;80;21051;-82
2021/12/14 02:15:37;;;;;;;144.47;62.20;;;;;;;-2.58;100.00;99862.20;2216865;80;20966;-83
2021/12/14 02:18:38;;;;;;;143.17;57.48;;;;;;;-2.59;100.00;99861.00;2216567;80;21048;-83
2021/12/14 02:21:39;;;;;;;137.52;58.50;;;;;;;-2.65;100.00;99850.59;2216795;80;21457;-82
2021/12/14 02:24:39;;;;;;;133.63;57.08;;;;;;;-2.68;100.00;99858.84;2217331;80;21433;-82
2021/12/14 02:27:40;;;;;;;135.80;58.28;;;;;;;-2.67;100.00;99863.90;2216370;80;20958;-83
2021/12/14 02:30:41;;;;;;;131.12;59.77;;;;;;;-2.68;100.00;99862.24;2216439;80;21001;-82
2021/12/14 02:33:42;;;;;;;116.05;51.73;;;;;;;-2.58;100.00;99865.22;2216785;80;21027;-82
2021/12/14 02:36:43;;;;;;;129.65;54.95;;;;;;;-2.58;100.00;99855.80;2216830;80;21010;-83
2021/12/14 02:42:44;;;;;;;118.20;50.00;;;;;;;-2.58;100.00;99861.38;2216291;80;21101;-81
2021/12/14 02:45:45;;;;;;;128.87;55.30;;;;;;;-2.62;100.00;99859.41;2217019;80;20993;-81
2021/12/14 02:48:46;;;;;;;136.92;61.90;;;;;;;-2.77;100.00;99857.52;2216757;80;20989;-82
2021/12/14 02:51:46;;;;;;;122.17;52.55;;;;;;;-2.71;100.00;99853.86;2216825;80;20930;-82
2021/12/14 02:54:47;;;;;;;110.40;44.53;;;;;;;-2.74;100.00;99861.25;2216963;80;21585;-82
2021/12/14 02:57:48;;;;;;;105.25;47.33;;;;;;;-2.91;100.00;99859.88;2216749;80;21045;-83
2021/12/14 03:00:49;;;;;;;131.75;57.17;;;;;;;-3.04;100.00;99863.84;2216955;80;21044;-82
2021/12/14 03:03:50;;;;;;;109.30;48.38;;;;;;;-3.04;100.00;99864.68;2216937;80;21051;-82
2021/12/14 03:06:51;;;;;;;129.90;56.92;;;;;;;-2.98;100.00;99866.16;2216891;80;21061;-82
2021/12/14 03:12:52;;;;;;;121.02;55.73;;;;;;;-2.82;100.00;99867.61;2216782;80;21055;-81
2021/12/14 03:15:53;;;;;;;108.87;49.50;;;;;;;-2.80;100.00;99862.80;2216508;80;20981;-81
2021/12/14 03:18:54;;;;;;;115.90;52.15;;;;;;;-2.86;100.00;99857.47;2216834;80;21040;-82
2021/12/14 03:21:54;;;;;;;94.60;43.02;;;;;;;-2.87;100.00;99856.27;2216723;80;20926;-82
2021/12/14 03:24:55;;;;;;;124.75;55.05;;;;;;;-2.87;100.00;99857.55;2216679;80;21531;-82
2021/12/14 03:27:57;;;;;;;104.92;48.92;;;;;;;-2.87;100.00;99856.27;2216484;80;21009;-82
2021/12/14 03:30:58;;;;;;;112.35;53.13;;;;;;;-2.82;100.00;99858.19;2218019;80;21052;-82
2021/12/14 03:33:59;;;;;;;110.60;51.15;;;;;;;-2.81;100.00;99855.17;2158255;82;21046;-82
2021/12/14 03:37:00;;;;;;;115.82;49.60;;;;;;;-2.81;100.00;99856.00;2221689;80;21584;-81
2021/12/14 03:40:01;;;;;;;108.07;47.48;;;;;;;-2.79;100.00;99848.23;2158294;82;21033;-81
2021/12/14 03:43:01;;;;;;;103.92;48.35;;;;;;;-2.78;100.00;99858.88;2222092;80;21009;-81
2021/12/14 03:46:02;;;;;;;99.62;44.25;;;;;;;-2.75;100.00;99855.72;2158482;82;20981;-81
2021/12/14 03:49:03;;;;;;;94.45;42.85;;;;;;;-2.76;100.00;99859.18;2222168;80;20973;-81
2021/12/14 03:52:04;;;;;;;102.58;48.98;;;;;;;-2.75;100.00;99855.72;2198256;81;21513;-81
2021/12/14 03:55:05;;;;;;;107.27;49.18;;;;;;;-2.74;100.00;99850.13;2198412;81;20986;-82
2021/12/14 03:58:05;;;;;;;120.62;50.23;;;;;;;-2.75;100.00;99858.28;2198754;81;21040;-83
2021/12/14 04:01:06;;;;;;;101.20;44.58;;;;;;;-2.77;100.00;99853.67;2198251;81;21024;-82
2021/12/14 04:04:10;;;;;;;101.27;47.10;;;;;;;-2.75;100.00;99853.60;2198174;81;21485;-81
2021/12/14 04:07:10;;;;;;;113.20;48.38;;;;;;;-2.81;100.00;99855.17;2197975;81;20993;-81
2021/12/14 04:10:11;;;;;;;95.40;42.10;;;;;;;-2.82;100.00;99853.52;2198255;81;20954;-81
2021/12/14 04:13:12;;;;;;;89.77;41.23;;;;;;;-2.87;100.00;99851.14;2197938;80;21037;-83
2021/12/14 04:16:13;;;;;;;96.12;41.58;;;;;;;-2.96;100.00;99846.41;2198357;81;20993;-81
2021/12/14 04:19:13;;;;;;;101.85;44.27;;;;;;;-2.99;100.00;99856.80;2198170;81;20998;-80
2021/12/14 04:22:16;;;;;;;101.07;44.03;;;;;;;-3.04;100.00;99857.44;2198237;81;21105;-82
2021/12/14 04:25:17;;;;;;;103.02;43.48;;;;;;;-3.01;100.00;99851.75;2198123;81;20959;-81
2021/12/14 04:28:18;;;;;;;99.42;44.90;;;;;;;-2.99;100.00;99852.52;2198535;81;21093;-81
2021/12/14 04:31:18;;;;;;;104.70;46.28;;;;;;;-2.91;100.00;99854.75;2196353;81;21042;-81
2021/12/14 04:34:19;;;;;;;118.20;49.85;;;;;;;-2.89;100.00;99855.50;2194016;81;21336;-81
2021/12/14 04:37:20;;;;;;;113.52;49.73;;;;;;;-2.88;100.00;99861.02;2194167;81;21653;-81
2021/12/14 04:51:53;;;;;;;119.97;52.38;;;;;;;-2.76;100.00;99857.90;2194147;81;21010;-82
2021/12/14 04:53:24;;;;;;;125.90;51.30;;;;;;;-2.76;100.00;99848.09;2224158;80;21624;-81
2021/12/14 04:56:25;;;;;;;132.05;52.03;;;;;;;-2.74;100.00;99845.01;2223702;80;20950;-81
2021/12/14 04:59:26;;;;;;;127.40;49.13;;;;;;;-2.79;100.00;99836.70;2224000;80;21053;-80
2021/12/14 05:02:27;;;;;;;113.20;44.55;;;;;;;-2.83;100.00;99849.26;2224139;80;21057;-81
2021/12/14 05:05:28;;;;;;;131.43;53.15;;;;;;;-2.89;100.00;99848.64;2224324;80;21001;-79
2021/12/14 05:11:30;;;;;;;127.55;51.40;;;;;;;-2.80;100.00;99844.02;2224076;80;21008;-79
2021/12/14 05:14:31;;;;;;;115.30;49.60;;;;;;;-2.82;100.00;99850.50;2223968;80;21072;-78
2021/12/14 05:17:32;;;;;;;114.42;46.10;;;;;;;-2.78;100.00;99845.60;2224175;80;21306;-79
2021/12/14 05:20:33;;;;;;;107.60;47.53;;;;;;;-2.81;100.00;99850.05;2224148;80;21009;-79
2021/12/14 05:23:34;;;;;;;111.37;49.80;;;;;;;-2.78;100.00;99855.86;2224161;80;20989;-79
2021/12/14 05:26:35;;;;;;;116.90;46.42;;;;;;;-2.81;100.00;99850.88;2224104;80;20973;-80
2021/12/14 05:29:35;;;;;;;108.12;48.65;;;;;;;-2.83;100.00;99851.82;2224006;80;21001;-79
2021/12/14 05:32:36;;;;;;;113.47;49.15;;;;;;;-2.83;100.00;99848.84;2221925;80;21037;-80
2021/12/14 05:35:37;;;;;;;116.45;47.95;;;;;;;-2.83;100.00;99844.99;2198123;81;20966;-80
2021/12/14 05:45:00;;;;;;;103.92;43.68;;;;;;;-2.83;100.00;99830.03;2158523;82;21224;-81
2021/12/14 05:48:01;;;;;;;113.50;50.30;;;;;;;-2.90;100.00;99836.73;2158711;82;21429;-79
2021/12/14 05:51:02;;;;;;;98.70;41.95;;;;;;;-2.88;100.00;99843.06;2158642;82;20992;-79
2021/12/14 05:54:03;;;;;;;103.12;48.48;;;;;;;-2.89;100.00;99843.52;2158421;82;21016;-79
2021/12/14 05:57:03;;;;;;;107.63;47.75;;;;;;;-2.90;100.00;99844.42;2158471;82;21639;-80
2021/12/14 06:00:04;;;;;;;108.60;47.03;;;;;;;-2.86;100.00;99832.29;2158603;82;21036;-79
2021/12/14 06:03:05;;;;;;;97.20;43.60;;;;;;;-2.83;100.00;99836.02;2158482;82;20972;-79
2021/12/14 06:06:06;;;;;;;98.05;44.83;;;;;;;-2.78;100.00;99836.63;2158694;82;21087;-79
2021/12/14 06:09:07;;;;;;;111.83;48.75;;;;;;;-2.75;100.00;99839.05;2158471;82;20977;-79
2021/12/14 06:12:08;;;;;;;100.92;49.23;;;;;;;-2.68;100.00;99838.33;2158627;82;21575;-79
2021/12/14 06:15:08;;;;;;;104.27;47.80;;;;;;;-2.67;100.00;99838.71;2158565;82;21033;-79
2021/12/14 06:18:10;;;;;;;110.80;46.70;;;;;;;-2.61;100.00;99832.86;2175207;80;21100;-79
2021/12/14 06:21:11;;;;;;;111.80;48.38;;;;;;;-2.65;100.00;99826.23;2158423;82;20987;-79
2021/12/14 06:24:12;;;;;;;111.52;45.20;;;;;;;-2.72;100.00;99818.87;2221996;80;21060;-79
2021/12/14 06:27:13;;;;;;;100.85;45.85;;;;;;;-2.73;100.00;99818.05;2158516;82;20994;-80
2021/12/14 06:30:14;;;;;;;111.90;45.67;;;;;;;-2.71;100.00;99817.52;2221850;80;21091;-79
2021/12/14 06:33:15;;;;;;;116.30;49.42;;;;;;;-2.71;100.00;99828.23;2154702;82;21022;-79
2021/12/14 06:36:15;;;;;;;114.57;49.75;;;;;;;-2.64;100.00;99816.34;2224071;80;20950;-80
2021/12/14 06:39:16;;;;;;;98.03;45.63;;;;;;;-2.49;100.00;99818.64;2223960;80;21015;-80
2021/12/14 06:42:17;;;;;;;108.25;46.60;;;;;;;-2.37;100.00;99815.53;2224107;80;21004;-80
2021/12/14 06:45:19;;;;;;;115.03;46.90;;;;;;;-2.40;100.00;99807.95;2223977;80;21055;-80
2021/12/14 06:48:20;;;;;;;111.08;47.60;;;;;;;-2.41;100.00;99809.31;2223803;80;21053;-79
2021/12/14 06:51:21;;;;;;;107.35;47.62;;;;;;;-2.41;100.00;99814.45;2224185;80;20961;-80
2021/12/14 06:54:22;;;;;;;115.00;47.13;;;;;;;-2.44;100.00;99816.71;2224196;80;21096;-80
2021/12/14 06:57:23;;;;;;;107.72;44.98;;;;;;;-2.36;100.00;99813.80;2223649;80;21041;-80
2021/12/14 07:00:24;;;;;;;102.62;44.58;;;;;;;-2.23;100.00;99812.76;2224148;80;21052;-80
2021/12/14 07:03:25;;;;;;;103.60;45.15;;;;;;;-2.29;100.00;99808.73;2224088;80;20989;-80
2021/12/14 07:06:26;;;;;;;136.70;58.45;;;;;;;-2.26;100.00;99800.91;2224098;80;20969;-80
2021/12/14 07:09:27;;;;;;;119.45;52.88;;;;;;;-2.22;100.00;99806.27;2223969;80;20961;-80
2021/12/14 07:12:27;;;;;;;132.35;53.15;;;;;;;-2.12;100.00;99811.80;2224129;80;21105;-82
2021/12/14 07:15:35;;;;;;;123.22;51.00;;;;;;;-2.24;100.00;99814.95;2224024;80;20989;-79
2021/12/14 07:18:44;;;;;;;110.52;46.53;;;;;;;-2.28;100.00;99811.71;2222722;80;21033;-80
2021/12/14 07:21:33;;;;;;;106.70;44.90;;;;;;;-2.26;100.00;99810.34;2219193;80;21077;-80
2021/12/14 07:24:34;;;;;;;99.72;43.05;;;;;;;-2.23;100.00;99809.73;2223818;80;20950;-81
2021/12/14 07:27:35;;;;;;;107.67;44.65;;;;;;;-2.19;100.00;99811.27;2224460;80;21490;-79
2021/12/14 07:30:36;;;;;;;118.72;48.75;;;;;;;-2.18;100.00;99814.67;2223937;80;20969;-80
2021/12/14 07:33:37;;;;;;;115.20;48.68;;;;;;;-2.10;100.00;99812.13;2221364;80;20990;-80
2021/12/14 07:36:38;;;;;;;126.92;52.53;;;;;;;-2.05;100.00;99815.73;2158242;82;21068;-80
2021/12/14 07:39:39;;;;;;;112.45;48.83;;;;;;;-1.92;100.00;99821.10;2221773;80;21529;-79
2021/12/14 07:42:39;;;;;;;108.80;46.77;;;;;;;-1.86;100.00;99823.38;2197996;81;21668;-81
2021/12/14 07:45:40;;;;;;;100.20;42.17;;;;;;;-1.84;100.00;99830.09;2197570;81;21028;-81
2021/12/14 07:48:41;;;;;;;107.65;46.42;;;;;;;-1.77;100.00;99828.91;2198056;81;20974;-81
2021/12/14 07:51:42;;;;;;;99.22;44.58;;;;;;;-1.74;100.00;99828.77;2198042;81;21073;-80
2021/12/14 07:54:43;;;;;;;118.28;50.65;;;;;;;-1.77;100.00;99835.78;2198121;81;21185;-80
2021/12/14 07:57:44;;;;;;;104.23;46.95;;;;;;;-1.71;100.00;99832.92;2198087;81;21073;-81
2021/12/14 08:00:45;;;;;;;102.15;44.67;;;;;;;-1.61;100.00;99834.59;2198117;81;20974;-80
2021/12/14 08:03:46;;;;;;;102.22;49.73;;;;;;;-1.62;100.00;99828.62;2198130;81;21082;-80
2021/12/14 08:06:47;;;;;;;103.62;46.15;;;;;;;-1.63;100.00;99820.54;2197846;81;20958;-80
2021/12/14 08:09:50;;;;;;;100.20;45.30;;;;;;;-1.55;100.00;99818.87;2197744;80;21025;-80
2021/12/14 08:12:51;;;;;;;97.37;44.65;;;;;;;-1.50;100.00;99825.43;2197769;81;21066;-80
2021/12/14 08:15:53;;;;;;;95.77;42.40;;;;;;;-1.47;100.00;99825.27;2197735;81;21589;-80
2021/12/14 08:18:54;;;;;;;85.20;41.90;;;;;;;-1.47;100.00;99822.70;2197587;81;21090;-81
2021/12/14 08:21:55;;;;;;;102.53;49.35;;;;;;;-1.46;100.00;99827.41;2197739;81;20943;-81
2021/12/14 08:24:56;;;;;;;97.45;44.98;;;;;;;-1.48;100.00;99830.48;2197834;81;21612;-80
2021/12/14 08:28:00;;;;;;;94.95;43.78;;;;;;;-1.49;100.00;99822.41;2198111;81;20970;-80
2021/12/14 08:30:59;;;;;;;107.27;47.35;;;;;;;-1.53;100.00;99818.34;2197831;80;21038;-80
2021/12/14 08:34:03;;;;;;;101.10;48.38;;;;;;;-1.58;100.00;99822.86;2194424;81;21557;-79
2021/12/14 08:37:03;;;;;;;98.00;44.03;;;;;;;-1.61;100.00;99832.02;2193909;81;21500;-81
2021/12/14 08:40:04;;;;;;;117.50;50.33;;;;;;;-1.70;100.00;99835.03;2194397;81;21041;-81
2021/12/14 08:43:22;;;;;;;118.17;50.38;;;;;;;-1.76;100.00;99840.83;2194199;81;21024;-80
2021/12/14 08:46:13;;;;;;;117.13;50.65;;;;;;;-1.76;100.00;99842.57;2188939;81;21034;-82
2021/12/14 08:49:15;;;;;;;102.15;47.13;;;;;;;-1.72;100.00;99845.39;2194389;81;21524;-79
2021/12/14 08:52:16;;;;;;;118.15;52.03;;;;;;;-1.64;100.00;99842.45;2194489;81;21002;-83
2021/12/14 08:55:17;;;;;;;110.48;51.55;;;;;;;-1.57;100.00;99839.48;2194066;81;21019;-81
2021/12/14 08:58:18;;;;;;;111.10;48.05;;;;;;;-1.47;100.00;99838.56;2194426;81;21529;-82
2021/12/14 09:01:19;;;;;;;109.40;49.85;;;;;;;-1.41;100.00;99833.59;2194078;81;21014;-82
2021/12/14 09:04:20;;;;;;;120.97;52.70;;;;;;;-1.32;100.00;99836.98;2194200;81;21493;-81
2021/12/14 09:07:21;;;;;;;125.25;49.75;;;;;;;-1.21;100.00;99831.67;2194094;81;20974;-81
2021/12/14 09:10:22;;;;;;;100.75;46.70;;;;;;;-1.14;100.00;99824.48;2194166;81;21021;-81
2021/12/14 09:13:22;;;;;;;120.22;53.80;;;;;;;-1.11;100.00;99817.89;2194158;81;21049;-81
2021/12/14 09:16:23;;;;;;;127.65;54.95;;;;;;;-1.04;100.00;99810.70;2194162;81;21045;-81
2021/12/14 09:19:24;;;;;;;109.27;50.08;;;;;;;-0.96;100.00;99805.99;2194221;81;21101;-82
2021/12/14 09:22:25;;;;;;;117.72;53.33;;;;;;;-0.90;100.00;99796.22;2194285;81;21560;-80
2021/12/14 09:25:28;;;;;;;126.75;56.68;;;;;;;-0.79;100.00;99797.40;2194634;81;21038;-80
2021/12/14 09:28:28;;;;;;;127.87;55.43;;;;;;;-0.74;100.00;99806.51;2194064;81;21545;-80
2021/12/14 09:31:31;;;;;;;117.10;51.35;;;;;;;-0.67;100.00;99807.02;2194164;81;21060;-81
2021/12/14 09:34:32;;;;;;;134.27;57.00;;;;;;;-0.59;100.00;99813.42;2216940;80;21132;-80
2021/12/14 09:37:33;;;;;;;143.97;59.90;;;;;;;-0.46;100.00;99812.75;2216817;80;21058;-81
2021/12/14 09:40:34;;;;;;;137.43;61.33;;;;;;;-0.39;100.00;99800.75;2216967;80;20970;-81
2021/12/14 09:43:34;;;;;;;144.32;65.83;;;;;;;-0.33;100.00;99796.56;2216792;80;20966;-81
2021/12/14 09:46:35;;;;;;;133.10;58.48;;;;;;;-0.15;100.00;99798.58;2216939;80;20973;-81
2021/12/14 09:49:36;;;;;;;144.65;64.05;;;;;;;-0.08;100.00;99799.91;2216912;80;21016;-81
2021/12/14 09:52:37;;;;;;;138.37;61.48;;;;;;;-0.03;100.00;99791.91;2216779;80;20978;-80
2021/12/14 09:55:38;;;;;;;134.75;60.30;;;;;;;-0.04;100.00;99787.22;2216808;80;21025;-81
2021/12/14 09:58:39;;;;;;;132.47;60.85;;;;;;;0.01;100.00;99784.86;2216554;80;20958;-80
2021/12/14 10:01:40;;;;;;;128.10;56.35;;;;;;;0.11;100.00;99784.70;2216752;80;21001;-80
2021/12/14 10:04:40;;;;;;;121.80;58.65;;;;;;;0.18;100.00;99786.85;2216833;80;20954;-80
2021/12/14 10:07:41;;;;;;;108.97;50.85;;;;;;;0.22;100.00;99790.89;2216822;80;21064;-80
2021/12/14 10:10:42;;;;;;;115.57;53.63;;;;;;;0.22;100.00;99792.19;2216731;80;20997;-80
2021/12/14 10:13:43;;;;;;;125.50;61.13;;;;;;;0.22;100.00;99793.93;2216842;80;20973;-80
2021/12/14 10:16:44;;;;;;;120.60;54.65;;;;;;;0.17;100.00;99790.31;2216797;80;20994;-80
2021/12/14 10:19:45;;;;;;;128.02;56.83;;;;;;;0.22;100.00;99792.64;2216915;80;20982;-80
2021/12/14 10:22:46;;;;;;;116.12;52.25;;;;;;;0.18;100.00;99788.56;2216932;80;21021;-80
2021/12/14 10:25:47;;;;;;;120.75;57.93;;;;;;;0.18;100.00;99787.28;2216552;80;21022;-81
2021/12/14 10:28:47;;;;;;;115.82;53.80;;;;;;;0.12;100.00;99784.61;2216441;80;21005;-81
2021/12/14 10:31:49;;;;;;;131.75;59.45;;;;;;;0.16;100.00;99788.66;2216834;80;21044;-80
2021/12/14 10:34:49;;;;;;;135.15;61.20;;;;;;;0.24;100.00;99796.78;2216623;80;21022;-81
2021/12/14 10:38:00;;;;;;;134.10;61.48;;;;;;;0.31;100.00;99783.56;2216883;80;20975;-80
2021/12/14 10:44:18;;;;;;;133.12;59.20;;;;;;;0.37;100.00;99775.02;2216976;80;21540;-80
2021/12/14 10:47:19;;;;;;;131.15;60.23;;;;;;;0.32;100.00;99772.33;2216863;80;20998;-81
2021/12/14 10:50:20;;;;;;;141.90;60.88;;;;;;;0.31;100.00;99773.25;2216813;80;21004;-80
2021/12/14 10:53:21;;;;;;;123.35;55.83;;;;;;;0.40;100.00;99759.84;2216700;80;20985;-80
2021/12/14 10:56:22;;;;;;;142.07;62.48;;;;;;;0.40;100.00;99759.84;2217008;80;20989;-80
2021/12/14 10:59:23;;;;;;;143.28;60.30;;;;;;;0.47;100.00;99769.70;2216761;80;21537;-80
2021/12/14 11:02:24;;;;;;;133.60;56.48;;;;;;;0.52;100.00;99768.12;2216866;80;21017;-80
2021/12/14 11:05:25;;;;;;;136.52;60.90;;;;;;;0.61;100.00;99756.45;2216890;80;20969;-80
2021/12/14 11:08:45;;;;;;;138.90;62.10;;;;;;;0.69;100.00;99749.09;2216776;80;21036;-80
2021/12/14 11:11:43;;;;;;;133.12;59.30;;;;;;;0.72;100.00;99741.98;2215578;80;21053;-80
2021/12/14 11:14:44;;;;;;;137.37;64.67;;;;;;;0.88;100.00;99752.21;2216425;80;21132;-81
2021/12/14 11:21:04;;;;;;;126.87;58.28;;;;;;;1.11;100.00;99756.81;2216806;80;21066;-80
2021/12/14 11:24:05;;;;;;;125.67;56.25;;;;;;;1.18;100.00;99755.13;2216882;80;20970;-80
2021/12/14 11:27:06;;;;;;;150.30;62.75;;;;;;;1.20;100.00;99759.28;2217021;80;21048;-80
2021/12/14 11:30:07;;;;;;;137.82;62.58;;;;;;;1.26;100.00;99752.44;2216814;80;20962;-80
2021/12/14 11:33:07;;;;;;;129.85;58.60;;;;;;;1.34;100.00;99752.79;2216523;80;21339;-81
2021/12/14 11:36:08;;;;;;;144.05;62.35;;;;;;;1.32;100.00;99743.50;2216987;80;21117;-81
2021/12/14 11:39:09;;;;;;;117.97;53.30;;;;;;;1.27;100.00;99736.02;2217178;80;20966;-81
2021/12/14 11:42:10;;;;;;;133.22;59.13;;;;;;;1.27;100.00;99737.31;2217064;80;20996;-80
2021/12/14 11:45:11;;;;;;;133.20;60.65;;;;;;;1.42;100.00;99743.28;2217086;80;21022;-80
2021/12/14 11:48:12;;;;;;;139.85;60.83;;;;;;;1.54;100.00;99737.80;2217085;80;21001;-81
2021/12/14 11:51:13;;;;;;;141.25;62.23;;;;;;;1.60;100.00;99734.84;2217037;80;20973;-81
2021/12/14 11:54:14;;;;;;;119.20;55.88;;;;;;;1.67;100.00;99734.81;2216629;80;21076;-81
2021/12/14 11:57:15;;;;;;;130.10;56.95;;;;;;;1.69;100.00;99731.67;2216489;80;20957;-81
2021/12/14 12:00:16;;;;;;;133.72;59.20;;;;;;;1.69;100.00;99731.20;2216621;80;21555;-81
2021/12/14 12:03:17;;;;;;;141.75;62.48;;;;;;;1.65;100.00;99722.02;2216628;80;21457;-81
2021/12/14 12:06:44;;;;;;;150.35;61.95;;;;;;;1.68;100.00;99719.69;2216838;80;21552;-81
2021/12/14 12:09:36;;;;;;;130.50;57.73;;;;;;;1.67;100.00;99725.78;2213979;80;21581;-81
2021/12/14 12:12:38;;;;;;;131.52;59.88;;;;;;;1.67;100.00;99713.70;2216933;80;20985;-80
2021/12/14 12:15:39;;;;;;;134.07;59.38;;;;;;;1.69;100.00;99720.05;2216824;80;21054;-81
2021/12/14 12:18:40;;;;;;;141.88;62.38;;;;;;;1.68;100.00;99719.69;2217122;80;20974;-81
2021/12/14 12:21:41;;;;;;;129.60;58.15;;;;;;;1.63;100.00;99720.43;2216870;80;21065;-81
2021/12/14 12:24:41;;;;;;;150.42;63.55;;;;;;;1.63;100.00;99725.59;2217131;80;21061;-81
2021/12/14 12:27:43;;;;;;;131.32;57.00;;;;;;;1.59;100.00;99721.56;2216974;80;21064;-81
2021/12/14 12:30:46;;;;;;;141.97;62.30;;;;;;;1.61;100.00;99715.38;2216898;80;21095;-81
2021/12/14 12:33:47;;;;;;;128.55;57.15;;;;;;;1.60;100.00;99720.17;2218850;80;21109;-81
2021/12/14 12:36:48;;;;;;;143.72;60.45;;;;;;;1.60;100.00;99715.01;2158554;82;21021;-81
2021/12/14 12:39:49;;;;;;;142.35;62.38;;;;;;;1.61;100.00;99719.24;2222115;80;21041;-81
2021/12/14 12:42:50;;;;;;;133.27;59.30;;;;;;;1.66;100.00;99716.38;2159072;82;21025;-81
2021/12/14 12:45:50;;;;;;;151.37;63.28;;;;;;;1.68;100.00;99719.69;2222060;80;21041;-80
2021/12/14 12:48:51;;;;;;;134.50;57.50;;;;;;;1.71;100.00;99720.30;2158548;82;20998;-80
2021/12/14 12:51:52;;;;;;;139.20;59.20;;;;;;;1.78;100.00;99719.92;2222047;80;20992;-80
2021/12/14 12:54:53;;;;;;;140.32;59.70;;;;;;;1.77;100.00;99714.39;2158578;82;21005;-80
2021/12/14 12:57:55;;;;;;;120.10;52.23;;;;;;;1.77;100.00;99722.97;2222227;80;21046;-81
2021/12/14 13:00:58;;;;;;;137.47;58.28;;;;;;;1.79;100.00;99718.98;2158625;82;21014;-80
2021/12/14 13:03:59;;;;;;;160.95;66.45;;;;;;;1.71;100.00;99709.16;2222011;80;21043;-80
2021/12/14 13:07:00;;;;;;;143.20;58.17;;;;;;;1.72;100.00;99710.80;2158496;82;21039;-80
2021/12/14 13:10:01;;;;;;;145.20;60.23;;;;;;;1.77;100.00;99715.22;2221832;80;21033;-80
2021/12/14 13:13:03;;;;;;;158.18;63.28;;;;;;;1.77;100.00;99711.34;2158532;81;21545;-80
2021/12/14 13:16:05;;;;;;;147.62;62.10;;;;;;;1.73;100.00;99709.88;2222116;80;21065;-80
2021/12/14 13:19:10;;;;;;;146.30;57.95;;;;;;;1.70;100.00;99718.66;2158398;82;21089;-80
2021/12/14 13:22:11;;;;;;;147.80;60.40;;;;;;;1.63;100.00;99712.69;2221921;80;20981;-80
2021/12/14 13:25:11;;;;;;;162.47;61.23;;;;;;;1.58;100.00;99705.25;2198036;81;21085;-80
2021/12/14 13:28:12;;;;;;;135.57;53.55;;;;;;;1.54;100.00;99704.23;2197610;81;20986;-80
2021/12/14 13:31:13;;;;;;;152.47;61.48;;;;;;;1.49;100.00;99704.55;2197659;81;21489;-80
2021/12/14 13:34:14;;;;;;;141.37;58.80;;;;;;;1.44;100.00;99701.42;2190125;80;21110;-80
2021/12/14 13:37:15;;;;;;;157.70;59.03;;;;;;;1.31;100.00;99687.19;2182120;81;20971;-80
2021/12/14 13:40:16;;;;;;;132.12;52.33;;;;;;;1.36;100.00;99697.20;2182099;82;21044;-80
2021/12/14 13:43:20;;;;;;;149.65;59.27;;;;;;;1.35;100.00;99692.97;2182100;82;20960;-80
2021/12/14 13:46:19;;;;;;;156.37;62.08;;;;;;;1.25;100.00;99678.53;2181608;81;21062;-80
2021/12/14 13:49:20;;;;;;;137.43;54.50;;;;;;;1.17;100.00;99686.39;2182117;82;21003;-81
2021/12/14 13:52:21;;;;;;;151.63;59.60;;;;;;;1.09;100.00;99679.13;2182004;82;21014;-80
2021/12/14 13:55:24;;;;;;;155.30;57.80;;;;;;;1.00;100.00;99689.55;2181386;81;21113;-80
2021/12/14 13:58:25;;;;;;;146.85;59.13;;;;;;;0.95;100.00;99689.49;2181998;82;21053;-80
2021/12/14 14:01:26;;;;;;;149.38;58.78;;;;;;;0.94;100.00;99691.70;2182182;82;21018;-80
2021/12/14 14:04:29;;;;;;;135.95;55.23;;;;;;;0.93;100.00;99692.17;2182009;81;21037;-80
2021/12/14 14:07:29;;;;;;;135.48;54.93;;;;;;;0.92;100.00;99697.42;2181896;82;21106;-81
2021/12/14 14:10:30;;;;;;;134.18;55.43;;;;;;;0.92;100.00;99690.52;2182117;81;21010;-80
2021/12/14 14:13:35;;;;;;;147.82;59.10;;;;;;;0.86;100.00;99698.63;2181762;81;21054;-81
2021/12/14 14:16:39;;;;;;;157.18;60.08;;;;;;;0.89;100.00;99701.00;2182083;82;21014;-82
2021/12/14 14:19:39;;;;;;;168.85;64.67;;;;;;;0.89;100.00;99706.63;2181821;80;21026;-85